Time,TemperatureF,DewpointF,PressureIn,WindDirection,WindDirectionDegrees,WindSpeedMPH,WindSpeedGustMPH,Humidity,HourlyPrecipIn,Conditions,Clouds,dailyrainin,SoftwareType,DateUTC
2013-03-22 00:06:00,51.1,41.7,30.06,North,-999,0.0,4.0,70,0.00,,,-99.99,FreeWX-Wi 1.01,2013-03-22 07:06:00,
2013-03-22 00:16:00,50.9,42.3,30.06,North,-999,0.0,0.0,72,0.00,,,-99.99,FreeWX-Wi 1.01,2013-03-22 07:16:00,
2013-03-22 00:26:00,50.9,42.3,30.06,North,-999,0.0,0.0,72,0.00,,,-99.99,FreeWX-Wi 1.01,2013-03-22 07:26:00,
2013-03-22 00:36:00,50.9,42.6,30.06,North,-999,0.0,3.1,73,0.00,,,-99.99,FreeWX-Wi 1.01,2013-03-22 07:36:00,
2013-03-22 00:46:00,50.7,42.4,30.06,North,-999,0.0,2.7,73,0.00,,,-99.99,FreeWX-Wi 1.01,2013-03-22 07:46:00,
2013-03-22 00:56:00,50.7,42.4,30.06,North,-999,0.0,0.0,73,0.00,,,-99.99,FreeWX-Wi 1.01,2013-03-22 07:56:00,
2013-03-22 01:07:00,50.5,42.3,30.06,North,-999,0.0,0.0,73,0.00,,,-99.99,FreeWX-Wi 1.01,2013-03-22 08:07:00,
2013-03-22 01:17:00,50.2,41.9,30.06,North,-999,0.0,0.0,73,0.00,,,-99.99,FreeWX-Wi 1.01,2013-03-22 08:17:00,
2013-03-22 01:27:00,50.0,41.7,30.06,North,-999,0.0,0.0,73,0.00,,,-99.99,FreeWX-Wi 1.01,2013-03-22 08:27:00,
2013-03-22 01:37:00,50.0,41.7,30.06,North,-999,0.0,0.0,73,0.00,,,-99.99,FreeWX-Wi 1.01,2013-03-22 08:37:00,
2013-03-22 01:47:00,50.2,41.5,30.06,North,-999,0.0,0.0,72,0.00,,,-99.99,FreeWX-Wi 1.01,2013-03-22 08:47:00,
2013-03-22 01:57:00,50.0,41.4,30.06,North,-999,0.0,0.0,72,0.00,,,-99.99,FreeWX-Wi 1.01,2013-03-22 08:57:00,
2013-03-22 02:07:00,49.6,41.0,30.06,North,-999,0.0,0.0,72,0.00,,,-99.99,FreeWX-Wi 1.01,2013-03-22 09:07:00,
2013-03-22 02:17:00,49.6,41.4,30.06,North,-999,0.0,0.0,73,0.00,,,-99.99,FreeWX-Wi 1.01,2013-03-22 09:17:00,
2013-03-22 02:27:00,49.8,41.2,30.06,North,-999,0.0,0.0,72,0.00,,,-99.99,FreeWX-Wi 1.01,2013-03-22 09:27:00,
2013-03-22 02:37:00,49.6,41.0,30.06,North,-999,0.0,0.0,72,0.00,,,-99.99,FreeWX-Wi 1.01,2013-03-22 09:37:00,
2013-03-22 02:47:00,49.5,40.8,30.06,North,-999,0.0,0.0,72,0.00,,,-99.99,FreeWX-Wi 1.01,2013-03-22 09:47:00,
2013-03-22 02:57:00,49.3,40.6,30.06,North,-999,0.0,0.0,72,0.00,,,-99.99,FreeWX-Wi 1.01,2013-03-22 09:57:00,
2013-03-22 03:07:00,49.1,40.5,30.06,North,-999,0.0,0.0,72,0.00,,,-99.99,FreeWX-Wi 1.01,2013-03-22 10:07:00,
2013-03-22 03:17:00,48.9,40.3,30.06,North,-999,0.0,0.0,72,0.00,,,-99.99,FreeWX-Wi 1.01,2013-03-22 10:17:00,
2013-03-22 03:27:00,48.7,40.1,30.06,North,-999,0.0,0.0,72,0.00,,,-99.99,FreeWX-Wi 1.01,2013-03-22 10:27:00,
2013-03-22 03:37:00,48.6,39.9,30.06,North,-999,0.0,0.0,72,0.00,,,-99.99,FreeWX-Wi 1.01,2013-03-22 10:37:00,
2013-03-22 03:47:00,48.4,40.1,30.06,North,-999,0.0,0.0,73,0.00,,,-99.99,FreeWX-Wi 1.01,2013-03-22 10:47:00,
2013-03-22 03:57:00,48.4,40.1,30.06,North,-999,0.0,0.0,73,0.00,,,-99.99,FreeWX-Wi 1.01,2013-03-22 10:57:00,
2013-03-22 04:07:00,48.4,40.5,30.06,North,-999,0.0,4.0,74,0.00,,,-99.99,FreeWX-Wi 1.01,2013-03-22 11:07:00,
2013-03-22 04:17:00,48.4,40.1,30.06,North,-999,0.0,3.1,73,0.00,,,-99.99,FreeWX-Wi 1.01,2013-03-22 11:17:00,
2013-03-22 04:27:00,48.2,39.9,30.06,North,-999,0.0,0.0,73,0.00,,,-99.99,FreeWX-Wi 1.01,2013-03-22 11:27:00,
2013-03-22 04:37:00,48.0,39.7,30.06,North,-999,0.0,0.0,73,0.00,,,-99.99,FreeWX-Wi 1.01,2013-03-22 11:37:00,
2013-03-22 04:47:00,47.7,39.4,30.06,North,-999,0.0,0.0,73,0.00,,,-99.99,FreeWX-Wi 1.01,2013-03-22 11:47:00,
2013-03-22 04:57:00,47.5,39.2,30.06,North,-999,0.0,0.0,73,0.00,,,-99.99,FreeWX-Wi 1.01,2013-03-22 11:57:00,
2013-03-22 05:07:00,47.5,39.6,30.06,North,-999,0.0,0.0,74,0.00,,,-99.99,FreeWX-Wi 1.01,2013-03-22 12:07:00,
2013-03-22 05:17:00,47.3,39.4,30.06,North,-999,0.0,0.0,74,0.00,,,-99.99,FreeWX-Wi 1.01,2013-03-22 12:17:00,
2013-03-22 05:27:00,47.3,39.4,30.06,North,-999,0.0,0.0,74,0.00,,,-99.99,FreeWX-Wi 1.01,2013-03-22 12:27:00,
2013-03-22 05:37:00,47.3,39.7,30.06,North,-999,0.0,0.0,75,0.00,,,-99.99,FreeWX-Wi 1.01,2013-03-22 12:37:00,
2013-03-22 05:47:00,47.7,40.5,30.06,North,-999,0.0,2.2,76,0.00,,,-99.99,FreeWX-Wi 1.01,2013-03-22 12:47:00,
2013-03-22 05:57:00,47.5,39.9,30.06,North,-999,0.0,0.0,75,0.00,,,-99.99,FreeWX-Wi 1.01,2013-03-22 12:57:00,
2013-03-22 06:07:00,47.1,39.6,30.06,North,-999,0.0,0.0,75,0.00,,,-99.99,FreeWX-Wi 1.01,2013-03-22 13:07:00,
2013-03-22 06:17:00,47.3,40.1,30.06,North,-999,0.0,0.0,76,0.00,,,-99.99,FreeWX-Wi 1.01,2013-03-22 13:17:00,
2013-03-22 06:27:00,47.7,40.5,30.06,North,-999,0.0,0.0,76,0.00,,,-99.99,FreeWX-Wi 1.01,2013-03-22 13:27:00,
2013-03-22 06:37:00,47.3,39.7,30.06,North,-999,0.0,0.0,75,0.00,,,-99.99,FreeWX-Wi 1.01,2013-03-22 13:37:00,
2013-03-22 06:47:00,47.3,39.7,30.06,North,-999,0.0,4.0,75,0.00,,,-99.99,FreeWX-Wi 1.01,2013-03-22 13:47:00,
2013-03-22 06:57:00,47.3,39.7,30.06,North,-999,0.0,4.9,75,0.00,,,-99.99,FreeWX-Wi 1.01,2013-03-22 13:57:00,
2013-03-22 07:07:00,47.3,39.7,30.06,North,-999,0.0,3.6,75,0.00,,,-99.99,FreeWX-Wi 1.01,2013-03-22 14:07:00,
2013-03-22 07:17:00,47.3,39.4,30.06,North,-999,0.0,0.0,74,0.00,,,-99.99,FreeWX-Wi 1.01,2013-03-22 14:17:00,
2013-03-22 07:27:00,47.5,39.2,30.09,North,-999,0.0,3.6,73,0.00,,,-99.99,FreeWX-Wi 1.01,2013-03-22 14:27:00,
2013-03-22 07:37:00,47.5,39.2,30.09,North,-999,0.0,0.0,73,0.00,,,-99.99,FreeWX-Wi 1.01,2013-03-22 14:37:00,
2013-03-22 07:47:00,48.7,40.5,30.09,North,-999,0.0,4.0,73,0.00,,,-99.99,FreeWX-Wi 1.01,2013-03-22 14:47:00,
2013-03-22 07:57:00,49.3,40.6,30.09,North,-999,0.0,2.7,72,0.00,,,-99.99,FreeWX-Wi 1.01,2013-03-22 14:57:00,
2013-03-22 08:07:00,49.6,39.9,30.09,North,-999,0.0,3.1,69,0.00,,,-99.99,FreeWX-Wi 1.01,2013-03-22 15:07:00,
2013-03-22 08:17:00,50.2,39.2,30.09,North,-999,0.0,2.7,66,0.00,,,-99.99,FreeWX-Wi 1.01,2013-03-22 15:17:00,
2013-03-22 08:27:00,50.7,36.5,30.09,North,-999,0.0,3.6,58,0.00,,,-99.99,FreeWX-Wi 1.01,2013-03-22 15:27:00,
2013-03-22 08:37:00,51.1,34.5,30.09,North,-999,0.0,6.3,53,0.00,,,-99.99,FreeWX-Wi 1.01,2013-03-22 15:37:00,
2013-03-22 08:47:00,51.6,33.1,30.09,ENE,71,1.0,6.3,49,0.00,,,-99.99,FreeWX-Wi 1.01,2013-03-22 15:47:00,
2013-03-22 08:57:00,52.2,32.5,30.09,ENE,60,2.0,6.3,47,0.00,,,-99.99,FreeWX-Wi 1.01,2013-03-22 15:57:00,
2013-03-22 09:07:00,52.3,29.3,30.12,NE,53,2.0,4.9,41,0.00,,,-99.99,FreeWX-Wi 1.01,2013-03-22 16:07:00,
2013-03-22 09:17:00,52.5,28.9,30.12,ENE,59,2.0,4.9,40,0.00,,,-99.99,FreeWX-Wi 1.01,2013-03-22 16:17:00,
2013-03-22 09:27:00,52.9,26.6,30.12,ENE,60,2.0,6.3,36,0.00,,,-99.99,FreeWX-Wi 1.01,2013-03-22 16:27:00,
2013-03-22 09:37:00,53.4,27.1,30.12,ENE,71,2.0,6.3,36,0.00,,,-99.99,FreeWX-Wi 1.01,2013-03-22 16:37:00,
2013-03-22 09:47:00,54.0,26.2,30.12,ENE,68,3.0,6.7,34,0.00,,,-99.99,FreeWX-Wi 1.01,2013-03-22 16:47:00,
2013-03-22 09:57:00,54.5,25.3,30.12,ENE,72,3.0,6.3,32,0.00,,,-99.99,FreeWX-Wi 1.01,2013-03-22 16:57:00,
2013-03-22 10:07:00,55.0,22.5,30.12,ENE,70,4.0,7.6,28,0.00,,,-99.99,FreeWX-Wi 1.01,2013-03-22 17:07:00,
2013-03-22 10:17:00,55.4,23.7,30.12,ENE,62,3.0,6.3,29,0.00,,,-99.99,FreeWX-Wi 1.01,2013-03-22 17:17:00,
2013-03-22 10:27:00,55.8,22.3,30.12,NE,54,4.0,7.6,27,0.00,,,-99.99,FreeWX-Wi 1.01,2013-03-22 17:27:00,
2013-03-22 10:37:00,56.5,22.1,30.12,NE,49,4.0,8.1,26,0.00,,,-99.99,FreeWX-Wi 1.01,2013-03-22 17:37:00,
2013-03-22 10:47:00,56.8,22.3,30.12,NE,54,4.0,8.1,26,0.00,,,-99.99,FreeWX-Wi 1.01,2013-03-22 17:47:00,
2013-03-22 10:57:00,57.7,22.1,30.12,ENE,65,4.0,7.2,25,0.00,,,-99.99,FreeWX-Wi 1.01,2013-03-22 17:57:00,
2013-03-22 11:07:00,58.3,22.6,30.12,ENE,64,4.0,7.6,25,0.00,,,-99.99,FreeWX-Wi 1.01,2013-03-22 18:07:00,
2013-03-22 11:17:00,59.2,23.4,30.12,ENE,65,4.0,6.3,25,0.00,,,-99.99,FreeWX-Wi 1.01,2013-03-22 18:17:00,
2013-03-22 11:27:00,59.9,23.0,30.12,ENE,64,3.0,7.6,24,0.00,,,-99.99,FreeWX-Wi 1.01,2013-03-22 18:27:00,
2013-03-22 11:37:00,60.6,23.7,30.12,ENE,74,3.0,8.3,24,0.00,,,-99.99,FreeWX-Wi 1.01,2013-03-22 18:37:00,
2013-03-22 11:47:00,61.0,23.9,30.12,ENE,72,3.0,5.8,24,0.00,,,-99.99,FreeWX-Wi 1.01,2013-03-22 18:47:00,
2013-03-22 11:57:00,61.5,24.4,30.12,ENE,72,3.0,5.8,24,0.00,,,-99.99,FreeWX-Wi 1.01,2013-03-22 18:57:00,
2013-03-22 12:07:00,62.1,21.7,30.12,ENE,64,3.0,8.3,21,0.00,,,-99.99,FreeWX-Wi 1.01,2013-03-22 19:07:00,
2013-03-22 12:17:00,62.6,25.3,30.12,ENE,62,3.0,7.2,24,0.00,,,-99.99,FreeWX-Wi 1.01,2013-03-22 19:17:00,
2013-03-22 12:27:00,63.0,25.7,30.12,NE,39,3.0,6.3,24,0.00,,,-99.99,FreeWX-Wi 1.01,2013-03-22 19:27:00,
2013-03-22 12:37:00,63.1,25.7,30.12,NNE,23,3.0,6.3,24,0.00,,,-99.99,FreeWX-Wi 1.01,2013-03-22 19:37:00,
2013-03-22 12:47:00,63.5,26.1,30.12,NNE,23,3.0,6.7,24,0.00,,,-99.99,FreeWX-Wi 1.01,2013-03-22 19:47:00,
2013-03-22 12:57:00,64.0,26.6,30.12,NE,35,3.0,7.6,24,0.00,,,-99.99,FreeWX-Wi 1.01,2013-03-22 19:57:00,
2013-03-22 13:07:00,64.2,28.6,30.12,NNE,27,3.0,8.1,26,0.00,,,-99.99,FreeWX-Wi 1.01,2013-03-22 20:07:00,
2013-03-22 13:17:00,64.0,28.4,30.12,NNE,13,4.0,6.3,26,0.00,,,-99.99,FreeWX-Wi 1.01,2013-03-22 20:17:00,
2013-03-22 13:27:00,63.9,28.2,30.12,North,350,4.0,8.3,26,0.00,,,-99.99,FreeWX-Wi 1.01,2013-03-22 20:27:00,
2013-03-22 13:37:00,63.7,28.2,30.12,NNW,341,3.0,9.2,26,0.00,,,-99.99,FreeWX-Wi 1.01,2013-03-22 20:37:00,
2013-03-22 13:47:00,63.3,27.9,30.12,NNW,339,4.0,8.7,26,0.00,,,-99.99,FreeWX-Wi 1.01,2013-03-22 20:47:00,
2013-03-22 13:57:00,63.5,28.9,30.09,NNW,336,4.0,11.4,27,0.00,,,-99.99,FreeWX-Wi 1.01,2013-03-22 20:57:00,
2013-03-22 14:07:00,63.3,28.8,30.09,NNW,339,4.0,8.3,27,0.00,,,-99.99,FreeWX-Wi 1.01,2013-03-22 21:07:00,
2013-03-22 14:17:00,63.1,28.6,30.09,NNW,340,4.0,9.6,27,0.00,,,-99.99,FreeWX-Wi 1.01,2013-03-22 21:17:00,
2013-03-22 14:27:00,63.9,29.3,30.09,North,351,4.0,8.3,27,0.00,,,-99.99,FreeWX-Wi 1.01,2013-03-22 21:27:00,
2013-03-22 14:37:00,64.2,29.5,30.09,North,2,3.0,5.8,27,0.00,,,-99.99,FreeWX-Wi 1.01,2013-03-22 21:37:00,
2013-03-22 14:48:00,64.4,29.7,30.09,NNE,16,3.0,8.3,27,0.00,,,-99.99,FreeWX-Wi 1.01,2013-03-22 21:48:00,
2013-03-22 14:58:00,63.5,28.9,30.06,NNE,15,3.0,8.1,27,0.00,,,-99.99,FreeWX-Wi 1.01,2013-03-22 21:58:00,
2013-03-22 15:08:00,63.1,29.5,30.06,North,356,4.0,8.7,28,0.00,,,-99.99,FreeWX-Wi 1.01,2013-03-22 22:08:00,
2013-03-22 15:18:00,63.5,29.8,30.06,NNW,348,4.0,8.1,28,0.00,,,-99.99,FreeWX-Wi 1.01,2013-03-22 22:18:00,
2013-03-22 15:28:00,63.5,29.8,30.06,NNW,342,4.0,7.6,28,0.00,,,-99.99,FreeWX-Wi 1.01,2013-03-22 22:28:00,
2013-03-22 15:38:00,63.1,29.5,30.06,North,353,4.0,7.6,28,0.00,,,-99.99,FreeWX-Wi 1.01,2013-03-22 22:38:00,
2013-03-22 15:48:00,62.4,30.6,30.06,North,350,4.0,13.2,30,0.00,,,-99.99,FreeWX-Wi 1.01,2013-03-22 22:48:00,
2013-03-22 15:58:00,62.2,32.0,30.06,North,356,4.0,11.0,32,0.00,,,-99.99,FreeWX-Wi 1.01,2013-03-22 22:58:00,
2013-03-22 16:08:00,61.9,32.5,30.06,NNW,343,4.0,10.5,33,0.00,,,-99.99,FreeWX-Wi 1.01,2013-03-22 23:08:00,
2013-03-22 16:18:00,61.7,33.1,30.06,NNW,346,4.0,7.6,34,0.00,,,-99.99,FreeWX-Wi 1.01,2013-03-22 23:18:00,
2013-03-22 16:28:00,61.5,32.9,30.06,NNW,344,5.0,11.0,34,0.00,,,-99.99,FreeWX-Wi 1.01,2013-03-22 23:28:00,
2013-03-22 16:38:00,61.3,32.7,30.06,NNW,344,5.0,10.5,34,0.00,,,-99.99,FreeWX-Wi 1.01,2013-03-22 23:38:00,
2013-03-22 16:48:00,60.4,33.4,30.06,NNW,341,5.0,10.5,36,0.00,,,-99.99,FreeWX-Wi 1.01,2013-03-22 23:48:00,
2013-03-22 16:58:00,60.1,33.1,30.06,NNW,339,5.0,8.7,36,0.00,,,-99.99,FreeWX-Wi 1.01,2013-03-22 23:58:00,
2013-03-22 17:08:00,60.3,33.3,30.03,NNW,336,5.0,8.7,36,0.00,,,-99.99,FreeWX-Wi 1.01,2013-03-23 00:08:00,
2013-03-22 17:18:00,60.1,33.8,30.03,NNW,337,5.0,8.3,37,0.00,,,-99.99,FreeWX-Wi 1.01,2013-03-23 00:18:00,
2013-03-22 17:28:00,60.1,34.3,30.06,NNW,335,5.0,8.7,38,0.00,,,-99.99,FreeWX-Wi 1.01,2013-03-23 00:28:00,
2013-03-22 17:38:00,59.7,34.2,30.03,NNW,333,5.0,8.3,38,0.00,,,-99.99,FreeWX-Wi 1.01,2013-03-23 00:38:00,
2013-03-22 17:48:00,59.4,33.8,30.03,NNW,331,5.0,9.6,38,0.00,,,-99.99,FreeWX-Wi 1.01,2013-03-23 00:48:00,
2013-03-22 17:58:00,59.2,34.2,30.03,NNW,338,5.0,8.7,39,0.00,,,-99.99,FreeWX-Wi 1.01,2013-03-23 00:58:00,
2013-03-22 18:08:00,58.8,34.0,30.03,NNW,344,5.0,8.7,39,0.00,,,-99.99,FreeWX-Wi 1.01,2013-03-23 01:08:00,
2013-03-22 18:18:00,58.5,34.2,30.03,NNW,347,4.0,10.1,40,0.00,,,-99.99,FreeWX-Wi 1.01,2013-03-23 01:18:00,
2013-03-22 18:28:00,57.9,35.6,30.03,NNW,341,4.0,8.7,43,0.00,,,-99.99,FreeWX-Wi 1.01,2013-03-23 01:28:00,
2013-03-22 18:38:00,57.4,36.9,30.03,NNW,336,4.0,8.7,46,0.00,,,-99.99,FreeWX-Wi 1.01,2013-03-23 01:38:00,
2013-03-22 18:48:00,57.0,37.0,30.03,NNW,332,5.0,8.1,47,0.00,,,-99.99,FreeWX-Wi 1.01,2013-03-23 01:48:00,
2013-03-22 18:58:00,57.0,37.0,30.06,NNW,329,4.0,8.3,47,0.00,,,-99.99,FreeWX-Wi 1.01,2013-03-23 01:58:00,
2013-03-22 19:08:00,56.8,36.9,30.03,NNW,328,4.0,7.6,47,0.00,,,-99.99,FreeWX-Wi 1.01,2013-03-23 02:08:00,
2013-03-22 19:18:00,56.7,36.7,30.03,NNW,327,4.0,5.8,47,0.00,,,-99.99,FreeWX-Wi 1.01,2013-03-23 02:18:00,
2013-03-22 19:28:00,56.5,37.0,30.03,NNW,333,3.0,8.1,48,0.00,,,-99.99,FreeWX-Wi 1.01,2013-03-23 02:28:00,
2013-03-22 19:38:00,56.3,37.4,30.06,NNW,337,3.0,6.3,49,0.00,,,-99.99,FreeWX-Wi 1.01,2013-03-23 02:38:00,
2013-03-22 19:48:00,55.9,37.0,30.06,NNW,338,3.0,5.8,49,0.00,,,-99.99,FreeWX-Wi 1.01,2013-03-23 02:48:00,
2013-03-22 19:58:00,55.6,37.2,30.06,NNW,337,3.0,6.3,50,0.00,,,-99.99,FreeWX-Wi 1.01,2013-03-23 02:58:00,
2013-03-22 20:08:00,55.2,37.4,30.06,North,4,2.0,4.5,51,0.00,,,-99.99,FreeWX-Wi 1.01,2013-03-23 03:08:00,
2013-03-22 20:18:00,55.0,38.3,30.06,NNE,21,1.0,4.5,53,0.00,,,-99.99,FreeWX-Wi 1.01,2013-03-23 03:18:00,
2013-03-22 20:28:00,54.7,38.3,30.06,NNE,12,1.0,5.4,54,0.00,,,-99.99,FreeWX-Wi 1.01,2013-03-23 03:28:00,
2013-03-22 20:38:00,54.3,39.0,30.06,NNW,342,2.0,5.4,56,0.00,,,-99.99,FreeWX-Wi 1.01,2013-03-23 03:38:00,
2013-03-22 20:48:00,54.0,39.0,30.06,NNW,336,2.0,4.9,57,0.00,,,-99.99,FreeWX-Wi 1.01,2013-03-23 03:48:00,
2013-03-22 20:58:00,53.8,38.8,30.06,NNW,334,2.0,6.3,57,0.00,,,-99.99,FreeWX-Wi 1.01,2013-03-23 03:58:00,
2013-03-22 21:08:00,53.8,37.9,30.09,NNW,331,2.0,5.4,55,0.00,,,-99.99,FreeWX-Wi 1.01,2013-03-23 04:08:00,
2013-03-22 21:18:00,53.6,38.3,30.09,NNW,331,2.0,6.3,56,0.00,,,-99.99,FreeWX-Wi 1.01,2013-03-23 04:18:00,
2013-03-22 21:28:00,53.4,39.0,30.06,NNW,335,3.0,6.3,58,0.00,,,-99.99,FreeWX-Wi 1.01,2013-03-23 04:28:00,
2013-03-22 21:38:00,53.4,38.7,30.09,NNW,329,3.0,4.9,57,0.00,,,-99.99,FreeWX-Wi 1.01,2013-03-23 04:38:00,
2013-03-22 21:48:00,53.2,38.5,30.09,NNW,331,2.0,3.6,57,0.00,,,-99.99,FreeWX-Wi 1.01,2013-03-23 04:48:00,
2013-03-22 21:58:00,53.2,37.9,30.09,NNW,328,1.0,4.0,56,0.00,,,-99.99,FreeWX-Wi 1.01,2013-03-23 04:58:00,
2013-03-22 22:08:00,53.1,37.8,30.09,North,-999,0.0,4.0,56,0.00,,,-99.99,FreeWX-Wi 1.01,2013-03-23 05:08:00,
2013-03-22 22:18:00,53.1,38.3,30.09,North,-999,0.0,0.0,57,0.00,,,-99.99,FreeWX-Wi 1.01,2013-03-23 05:18:00,
2013-03-22 22:28:00,53.1,38.3,30.09,North,-999,0.0,0.0,57,0.00,,,-99.99,FreeWX-Wi 1.01,2013-03-23 05:28:00,
2013-03-22 22:38:00,52.9,38.1,30.09,North,-999,0.0,0.0,57,0.00,,,-99.99,FreeWX-Wi 1.01,2013-03-23 05:38:00,
2013-03-22 22:48:00,52.7,37.9,30.09,North,-999,0.0,0.0,57,0.00,,,-99.99,FreeWX-Wi 1.01,2013-03-23 05:48:00,
2013-03-22 22:58:00,52.5,38.1,30.09,North,-999,0.0,0.0,58,0.00,,,-99.99,FreeWX-Wi 1.01,2013-03-23 05:58:00,
2013-03-22 23:08:00,52.3,38.5,30.09,North,-999,0.0,0.0,59,0.00,,,-99.99,FreeWX-Wi 1.01,2013-03-23 06:08:00,
2013-03-22 23:18:00,52.2,38.3,30.09,North,-999,0.0,0.0,59,0.00,,,-99.99,FreeWX-Wi 1.01,2013-03-23 06:18:00,
2013-03-22 23:28:00,52.0,38.5,30.09,North,-999,0.0,0.0,60,0.00,,,-99.99,FreeWX-Wi 1.01,2013-03-23 06:28:00,
2013-03-22 23:38:00,51.8,38.8,30.09,North,-999,0.0,3.6,61,0.00,,,-99.99,FreeWX-Wi 1.01,2013-03-23 06:38:00,
2013-03-22 23:48:00,51.6,39.9,30.09,North,-999,0.0,0.0,64,0.00,,,-99.99,FreeWX-Wi 1.01,2013-03-23 06:48:00,
2013-03-22 23:58:00,51.4,39.7,30.09,North,-999,0.0,0.0,64,0.00,,,-99.99,FreeWX-Wi 1.01,2013-03-23 06:58:00,